createdAt,value
2017-06-21T00:02:20.450Z,21.70
2017-06-21T00:04:48.025Z,21.70
2017-06-21T00:07:15.662Z,21.70
2017-06-21T00:09:43.199Z,21.50
2017-06-21T00:12:11.524Z,21.30
2017-06-21T00:14:39.062Z,21.30
2017-06-21T00:17:06.618Z,21.20
2017-06-21T00:19:34.150Z,21.20
2017-06-21T00:22:01.723Z,21.00
2017-06-21T00:24:30.108Z,21.00
2017-06-21T00:26:57.675Z,21.00
2017-06-21T00:29:25.254Z,20.90
2017-06-21T00:31:52.782Z,20.80
2017-06-21T00:34:21.102Z,20.60
2017-06-21T00:36:48.638Z,20.60
2017-06-21T00:39:16.215Z,20.50
2017-06-21T00:41:43.755Z,20.60
2017-06-21T00:44:11.288Z,20.70
2017-06-21T00:46:39.615Z,20.50
2017-06-21T00:49:07.160Z,20.50
2017-06-21T00:51:34.724Z,20.30
2017-06-21T00:54:02.261Z,20.40
2017-06-21T00:56:29.856Z,20.40
2017-06-21T00:58:57.551Z,20.60
2017-06-21T01:01:25.163Z,20.60
2017-06-21T01:03:52.750Z,20.60
2017-06-21T01:06:20.287Z,20.40
2017-06-21T01:08:47.842Z,20.20
2017-06-21T01:11:15.566Z,20.00
2017-06-21T01:13:43.142Z,20.10
2017-06-21T01:16:11.439Z,20.30
2017-06-21T01:18:38.967Z,20.30
2017-06-21T01:21:06.526Z,20.40
2017-06-21T01:23:34.819Z,20.50
2017-06-21T01:26:03.147Z,20.60
2017-06-21T01:28:30.670Z,20.60
2017-06-21T01:30:58.243Z,20.60
2017-06-21T01:33:25.783Z,20.40
2017-06-21T01:35:53.332Z,20.20
2017-06-21T01:41:13.810Z,20.00
2017-06-21T01:43:41.366Z,20.10
2017-06-21T01:46:08.899Z,20.00
2017-06-21T01:48:36.464Z,20.10
2017-06-21T01:51:03.998Z,19.90
2017-06-21T01:53:31.534Z,20.00
2017-06-21T01:55:59.876Z,19.90
2017-06-21T01:58:27.415Z,19.90
2017-06-21T02:00:54.980Z,19.70
2017-06-21T02:03:22.518Z,19.70
2017-06-21T02:05:50.078Z,19.60
2017-06-21T02:08:17.605Z,19.60
2017-06-21T02:10:45.911Z,19.40
2017-06-21T02:13:13.482Z,19.30
2017-06-21T02:15:41.010Z,19.30
2017-06-21T02:18:09.338Z,19.40
2017-06-21T02:20:36.867Z,19.40
2017-06-21T02:23:04.443Z,19.50
2017-06-21T02:25:31.975Z,19.50
2017-06-21T02:28:00.278Z,19.50
2017-06-21T02:30:27.839Z,19.40
2017-06-21T02:32:55.371Z,19.40
2017-06-21T02:35:23.697Z,19.10
2017-06-21T02:37:51.235Z,19.10
2017-06-21T02:40:18.800Z,18.90
2017-06-21T02:42:46.332Z,18.90
2017-06-21T02:45:13.868Z,18.90
2017-06-21T02:47:41.428Z,18.90
2017-06-21T02:50:08.959Z,18.90
2017-06-21T02:52:36.518Z,18.90
2017-06-21T02:55:04.049Z,18.80
2017-06-21T02:57:31.623Z,18.70
2017-06-21T02:59:59.175Z,18.70
2017-06-21T03:02:26.707Z,18.70
2017-06-21T03:04:55.026Z,18.70
2017-06-21T03:07:22.562Z,18.70
2017-06-21T03:09:50.119Z,18.60
2017-06-21T03:12:17.650Z,18.70
2017-06-21T03:14:45.990Z,18.60
2017-06-21T03:17:13.524Z,18.60
2017-06-21T03:19:41.072Z,18.70
2017-06-21T03:22:08.628Z,18.70
2017-06-21T03:24:36.168Z,18.90
2017-06-21T03:27:04.499Z,19.00
2017-06-21T03:29:32.038Z,19.00
2017-06-21T03:31:59.623Z,19.00
2017-06-21T03:34:27.163Z,19.00
2017-06-21T03:36:54.698Z,19.10
2017-06-21T03:39:22.262Z,19.10
2017-06-21T03:41:49.798Z,19.20
2017-06-21T03:44:18.125Z,19.30
2017-06-21T03:46:45.650Z,19.30
2017-06-21T03:49:13.947Z,19.40
2017-06-21T03:51:41.506Z,19.30
2017-06-21T03:54:09.042Z,19.40
2017-06-21T03:56:37.379Z,19.50
2017-06-21T03:59:04.913Z,19.40
2017-06-21T04:01:32.454Z,19.50
2017-06-21T04:04:00.016Z,19.60
2017-06-21T04:06:27.930Z,19.70
2017-06-21T04:08:55.487Z,19.80
2017-06-21T04:11:23.099Z,19.90
2017-06-21T04:13:50.628Z,20.00
2017-06-21T04:16:18.246Z,20.10
2017-06-21T04:18:45.800Z,20.20
2017-06-21T04:21:13.360Z,20.20
2017-06-21T04:23:40.891Z,20.30
2017-06-21T04:26:09.209Z,20.60
2017-06-21T04:28:36.745Z,20.60
2017-06-21T04:31:04.274Z,20.70
2017-06-21T04:33:32.602Z,20.80
2017-06-21T04:36:00.135Z,20.80
2017-06-21T04:38:27.699Z,20.90
2017-06-21T04:40:55.227Z,20.90
2017-06-21T04:43:23.563Z,20.90
2017-06-21T04:45:51.091Z,20.90
2017-06-21T04:48:18.634Z,20.90
2017-06-21T04:50:46.198Z,21.00
2017-06-21T04:53:14.500Z,21.10
2017-06-21T04:55:42.063Z,21.10
2017-06-21T04:58:09.599Z,21.10
2017-06-21T05:00:37.179Z,21.10
2017-06-21T05:03:04.724Z,21.20
2017-06-21T05:05:32.265Z,21.30
2017-06-21T05:08:00.598Z,21.20
2017-06-21T05:10:28.126Z,21.10
2017-06-21T05:12:55.690Z,21.10
2017-06-21T05:15:23.235Z,21.00
2017-06-21T05:17:50.831Z,20.90
2017-06-21T05:20:18.371Z,21.00
2017-06-21T05:22:45.914Z,20.90
2017-06-21T05:25:13.475Z,20.90
2017-06-21T05:27:41.016Z,21.10
2017-06-21T05:30:09.351Z,21.10
2017-06-21T05:32:36.902Z,21.10
2017-06-21T05:35:04.605Z,21.10
2017-06-21T05:37:32.450Z,21.10
2017-06-21T05:40:00.016Z,21.00
2017-06-21T05:42:27.589Z,21.00
2017-06-21T05:44:55.122Z,20.90
2017-06-21T05:47:22.659Z,21.00
2017-06-21T05:49:50.218Z,21.00
2017-06-21T05:52:17.746Z,21.00
2017-06-21T05:54:46.083Z,21.20
2017-06-21T05:57:13.624Z,21.10
2017-06-21T05:59:41.186Z,21.20
2017-06-21T06:02:08.714Z,21.50
2017-06-21T06:04:46.547Z,22.20
2017-06-21T06:07:14.083Z,22.80
2017-06-21T06:09:41.626Z,24.00
2017-06-21T06:12:09.957Z,25.40
2017-06-21T06:14:37.482Z,25.40
2017-06-21T06:17:05.035Z,26.60
2017-06-21T06:19:32.634Z,27.40
2017-06-21T06:22:00.270Z,28.00
2017-06-21T06:24:27.830Z,28.10
2017-06-21T06:26:55.358Z,28.50
2017-06-21T06:29:23.691Z,27.50
2017-06-21T06:31:51.222Z,27.50
2017-06-21T06:34:18.775Z,27.30
2017-06-21T06:36:46.315Z,27.60
2017-06-21T06:39:14.655Z,27.20
2017-06-21T06:41:42.192Z,27.20
2017-06-21T06:44:09.724Z,26.90
2017-06-21T06:46:38.053Z,24.90
2017-06-21T06:49:05.583Z,24.80
2017-06-21T06:51:33.135Z,24.40
2017-06-21T06:54:00.668Z,24.40
2017-06-21T06:56:28.992Z,23.80
2017-06-21T06:58:56.573Z,23.80
2017-06-21T07:01:24.106Z,24.00
2017-06-21T07:03:51.664Z,24.10
2017-06-21T07:06:19.194Z,24.20
2017-06-21T07:08:47.510Z,24.50
2017-06-21T07:11:15.048Z,24.50
2017-06-21T07:13:42.627Z,24.40
2017-06-21T07:16:10.154Z,24.60
2017-06-21T07:18:38.446Z,24.60
2017-06-21T07:21:06.003Z,24.60
2017-06-21T07:23:33.537Z,24.50
2017-06-21T07:26:01.860Z,24.60
2017-06-21T07:28:29.395Z,24.60
2017-06-21T07:30:56.958Z,24.90
2017-06-21T07:33:24.490Z,25.00
2017-06-21T07:35:52.782Z,25.00
2017-06-21T07:38:20.338Z,25.00
2017-06-21T07:40:48.641Z,25.10
2017-06-21T07:43:16.194Z,25.10
2017-06-21T07:45:43.727Z,25.00
2017-06-21T07:48:12.066Z,25.10
2017-06-21T07:50:39.594Z,25.10
2017-06-21T07:53:07.123Z,25.30
2017-06-21T07:55:34.679Z,25.30
2017-06-21T07:58:02.990Z,25.20
2017-06-21T08:00:30.550Z,25.20
2017-06-21T08:02:58.082Z,25.40
2017-06-21T08:05:26.411Z,25.30
2017-06-21T08:07:53.942Z,25.30
2017-06-21T08:10:21.497Z,25.60
2017-06-21T08:12:50.337Z,25.90
2017-06-21T08:15:17.961Z,26.00
2017-06-21T08:17:45.495Z,25.80
2017-06-21T08:20:13.795Z,25.60
2017-06-21T08:22:41.350Z,25.60
2017-06-21T08:25:08.880Z,25.80
2017-06-21T08:27:37.205Z,26.30
2017-06-21T08:30:04.735Z,26.20
2017-06-21T08:32:32.287Z,26.10
2017-06-21T08:35:00.580Z,26.40
2017-06-21T08:37:28.139Z,26.50
2017-06-21T08:39:55.670Z,26.40
2017-06-21T08:42:23.992Z,26.80
2017-06-21T08:44:51.523Z,26.80
2017-06-21T08:47:19.839Z,26.60
2017-06-21T08:49:47.375Z,26.60
2017-06-21T08:52:14.931Z,26.60
2017-06-21T08:54:42.462Z,26.90
2017-06-21T08:57:10.794Z,26.50
2017-06-21T08:59:38.327Z,26.50
2017-06-21T09:02:05.907Z,26.90
2017-06-21T09:04:33.447Z,27.30
2017-06-21T09:07:01.017Z,27.40
2017-06-21T09:09:28.801Z,27.50
2017-06-21T09:11:56.418Z,27.50
2017-06-21T09:14:24.942Z,27.50
2017-06-21T09:16:52.559Z,27.50
2017-06-21T09:19:20.139Z,27.70
2017-06-21T09:21:47.671Z,27.80
2017-06-21T09:24:15.367Z,27.70
2017-06-21T09:26:43.047Z,27.70
2017-06-21T09:29:10.620Z,28.00
2017-06-21T09:31:38.147Z,27.70
2017-06-21T09:34:05.782Z,27.70
2017-06-21T09:36:34.250Z,28.20
2017-06-21T09:39:02.688Z,28.20
2017-06-21T09:41:30.232Z,28.20
2017-06-21T09:43:57.786Z,28.30
2017-06-21T09:46:25.415Z,28.50
2017-06-21T09:48:53.899Z,28.00
2017-06-21T09:51:21.451Z,28.00
2017-06-21T09:53:49.215Z,28.10
2017-06-21T09:56:17.536Z,28.70
2017-06-21T09:58:45.301Z,28.70
2017-06-21T10:01:12.884Z,28.80
2017-06-21T10:03:40.481Z,28.50
2017-06-21T10:06:08.011Z,28.70
2017-06-21T10:08:35.737Z,28.60
2017-06-21T10:11:03.393Z,29.00
2017-06-21T10:13:30.943Z,29.30
2017-06-21T10:15:59.267Z,28.90
2017-06-21T10:18:26.817Z,28.90
2017-06-21T10:20:54.542Z,28.80
2017-06-21T10:23:22.091Z,29.20
2017-06-21T10:25:49.786Z,29.40
2017-06-21T10:28:17.354Z,29.40
2017-06-21T10:30:45.248Z,28.90
2017-06-21T10:33:12.893Z,28.90
2017-06-21T10:35:40.471Z,29.50
2017-06-21T10:38:08.195Z,29.70
2017-06-21T10:40:35.772Z,29.80
2017-06-21T10:43:03.315Z,29.80
2017-06-21T10:45:31.018Z,29.80
2017-06-21T10:47:58.567Z,29.40
2017-06-21T10:50:26.135Z,29.70
2017-06-21T10:52:53.670Z,29.70
2017-06-21T10:55:21.408Z,29.60
2017-06-21T10:57:48.979Z,28.80
2017-06-21T11:00:16.542Z,29.10
2017-06-21T11:02:44.078Z,29.70
2017-06-21T11:05:13.199Z,30.60
2017-06-21T11:07:41.757Z,30.50
2017-06-21T11:10:09.729Z,30.10
2017-06-21T11:12:38.068Z,30.30
2017-06-21T11:15:05.603Z,30.20
2017-06-21T11:17:33.395Z,29.90
2017-06-21T11:20:01.295Z,29.80
2017-06-21T11:22:29.618Z,30.10
2017-06-21T11:24:57.155Z,30.10
2017-06-21T11:27:24.831Z,30.70
2017-06-21T11:29:52.455Z,30.10
2017-06-21T11:32:20.031Z,30.30
2017-06-21T11:34:47.567Z,30.90
2017-06-21T11:37:15.260Z,31.00
2017-06-21T11:39:42.916Z,31.00
2017-06-21T11:42:10.500Z,30.70
2017-06-21T11:44:38.035Z,30.70
2017-06-21T11:47:06.360Z,30.80
2017-06-21T11:49:34.172Z,30.80
2017-06-21T11:52:01.919Z,31.00
2017-06-21T11:54:29.491Z,30.80
2017-06-21T11:56:58.773Z,31.80
2017-06-21T11:59:26.343Z,31.70
2017-06-21T12:01:53.873Z,31.70
2017-06-21T12:04:21.639Z,31.80
2017-06-21T12:06:49.182Z,31.40
2017-06-21T12:09:16.739Z,30.60
2017-06-21T12:11:44.270Z,30.60
2017-06-21T12:14:11.835Z,31.00
2017-06-21T12:16:39.574Z,30.60
2017-06-21T12:19:07.896Z,30.50
2017-06-21T12:21:35.426Z,30.50
2017-06-21T12:24:02.979Z,30.80
2017-06-21T12:26:31.273Z,31.60
2017-06-21T12:28:58.830Z,31.60
2017-06-21T12:31:26.361Z,31.50
2017-06-21T12:33:54.689Z,32.10
2017-06-21T12:36:22.236Z,32.10
2017-06-21T12:38:49.876Z,31.30
2017-06-21T12:41:17.431Z,31.20
2017-06-21T12:43:45.753Z,31.20
2017-06-21T12:46:38.999Z,31.10
2017-06-21T12:49:06.611Z,31.30
2017-06-21T12:51:34.147Z,31.20
2017-06-21T12:54:01.875Z,31.40
2017-06-21T12:56:29.444Z,31.70
2017-06-21T12:58:57.015Z,31.90
2017-06-21T13:01:41.735Z,31.90
2017-06-21T13:04:09.330Z,31.70
2017-06-21T13:06:36.883Z,31.80
2017-06-21T13:09:04.460Z,31.90
2017-06-21T13:11:32.143Z,31.90
2017-06-21T13:13:59.838Z,31.90
2017-06-21T13:16:27.383Z,31.80
2017-06-21T13:18:54.911Z,31.80
2017-06-21T13:21:22.466Z,32.30
2017-06-21T13:23:49.999Z,32.20
2017-06-21T13:26:17.551Z,32.30
2017-06-21T13:28:45.083Z,32.60
2017-06-21T13:31:12.627Z,32.30
2017-06-21T13:33:40.146Z,31.50
2017-06-21T13:36:07.690Z,31.40
2017-06-21T13:38:35.213Z,31.50
2017-06-21T13:41:02.772Z,31.20
2017-06-21T13:43:30.302Z,31.40
2017-06-21T13:45:57.853Z,31.20
2017-06-21T13:48:25.372Z,31.70
2017-06-21T13:50:53.692Z,31.70
2017-06-21T13:53:21.219Z,31.70
2017-06-21T13:55:48.767Z,31.40
2017-06-21T13:58:17.058Z,32.00
2017-06-21T14:00:44.607Z,32.10
2017-06-21T14:03:12.136Z,31.60
2017-06-21T14:05:39.698Z,31.80
2017-06-21T14:08:07.235Z,31.50
2017-06-21T14:10:34.762Z,31.10
2017-06-21T14:13:02.315Z,30.90
2017-06-21T14:15:29.839Z,31.20
2017-06-21T14:17:57.386Z,31.70
2017-06-21T14:20:24.907Z,31.30
2017-06-21T14:22:52.464Z,31.80
2017-06-21T14:25:19.995Z,32.10
2017-06-21T14:27:48.316Z,31.70
2017-06-21T14:30:15.850Z,31.70
2017-06-21T14:32:43.571Z,31.70
2017-06-21T14:35:11.116Z,31.90
2017-06-21T14:37:38.666Z,31.90
2017-06-21T14:40:06.195Z,31.70
2017-06-21T14:42:33.883Z,31.30
2017-06-21T14:45:01.443Z,31.20
2017-06-21T14:47:29.018Z,31.60
2017-06-21T14:49:56.543Z,32.10
2017-06-21T14:52:24.190Z,31.80
2017-06-21T14:54:51.747Z,31.70
2017-06-21T14:57:19.313Z,31.90
2017-06-21T14:59:46.843Z,32.30
2017-06-21T15:02:14.560Z,32.20
2017-06-21T15:04:42.209Z,32.50
2017-06-21T15:07:09.766Z,32.40
2017-06-21T15:12:30.779Z,32.20
2017-06-21T15:14:59.435Z,32.80
2017-06-21T15:17:26.971Z,32.70
2017-06-21T15:19:58.521Z,33.00
2017-06-21T15:22:26.131Z,32.40
2017-06-21T15:24:54.997Z,32.00
2017-06-21T15:27:23.305Z,32.10
2017-06-21T15:29:50.859Z,32.10
2017-06-21T15:32:19.146Z,32.40
2017-06-21T15:34:46.712Z,32.40
2017-06-21T15:37:14.486Z,32.60
2017-06-21T15:39:42.112Z,32.30
2017-06-21T15:42:10.414Z,32.70
2017-06-21T15:44:37.963Z,32.70
2017-06-21T15:47:06.298Z,32.70
2017-06-21T15:49:34.009Z,32.70
2017-06-21T15:52:01.564Z,32.50
2017-06-21T15:54:29.114Z,32.00
2017-06-21T15:56:57.416Z,32.20
2017-06-21T15:59:25.128Z,32.20
2017-06-21T16:01:53.591Z,32.60
2017-06-21T16:04:21.322Z,32.50
2017-06-21T16:06:48.850Z,32.80
2017-06-21T16:09:17.178Z,32.80
2017-06-21T16:11:45.827Z,32.80
2017-06-21T16:14:14.155Z,32.80
2017-06-21T16:16:41.721Z,32.80
2017-06-21T16:19:09.267Z,33.20
2017-06-21T16:21:36.821Z,34.20
2017-06-21T16:24:04.346Z,34.40
2017-06-21T16:26:31.895Z,35.30
2017-06-21T16:28:59.432Z,35.60
2017-06-21T16:31:26.987Z,36.30
2017-06-21T16:33:54.519Z,35.90
2017-06-21T16:36:22.078Z,35.20
2017-06-21T16:38:49.599Z,34.20
2017-06-21T16:41:17.147Z,34.60
2017-06-21T16:43:44.675Z,34.80
2017-06-21T16:46:12.231Z,35.10
2017-06-21T16:48:39.757Z,35.30
2017-06-21T16:51:07.310Z,35.90
2017-06-21T16:53:35.062Z,35.80
2017-06-21T16:56:02.607Z,35.90
2017-06-21T16:58:31.060Z,35.50
2017-06-21T17:00:58.630Z,35.40
2017-06-21T17:03:26.156Z,36.00
2017-06-21T17:05:53.716Z,36.40
2017-06-21T17:08:21.389Z,36.00
2017-06-21T17:10:49.038Z,35.80
2017-06-21T17:13:16.618Z,35.70
2017-06-21T17:15:44.138Z,35.30
2017-06-21T17:18:11.807Z,35.60
2017-06-21T17:20:39.442Z,35.40
2017-06-21T17:23:07.011Z,35.20
2017-06-21T17:25:34.540Z,35.10
2017-06-21T17:28:02.199Z,34.30
2017-06-21T17:30:29.877Z,34.80
2017-06-21T17:32:57.451Z,34.50
2017-06-21T17:35:25.072Z,34.10
2017-06-21T17:37:52.622Z,35.00
2017-06-21T17:40:20.151Z,34.90
2017-06-21T17:42:48.120Z,35.20
2017-06-21T17:45:15.658Z,34.10
2017-06-21T17:47:43.231Z,33.40
2017-06-21T17:50:10.768Z,33.00
2017-06-21T17:52:39.120Z,32.30
2017-06-21T17:55:06.656Z,32.20
2017-06-21T17:57:34.209Z,31.90
2017-06-21T18:00:01.747Z,31.70
2017-06-21T18:02:29.299Z,31.50
2017-06-21T18:04:57.588Z,31.00
2017-06-21T18:07:25.127Z,30.90
2017-06-21T18:09:53.445Z,30.30
2017-06-21T18:12:20.970Z,30.30
2017-06-21T18:14:49.287Z,30.00
2017-06-21T18:17:16.815Z,29.90
2017-06-21T18:19:44.369Z,29.80
2017-06-21T18:22:12.664Z,29.50
2017-06-21T18:24:40.219Z,29.50
2017-06-21T18:27:07.747Z,29.50
2017-06-21T18:29:36.063Z,29.40
2017-06-21T18:32:03.588Z,29.30
2017-06-21T18:34:31.918Z,29.40
2017-06-21T18:36:59.447Z,29.40
2017-06-21T18:39:27.003Z,29.30
2017-06-21T18:41:54.533Z,29.10
2017-06-21T18:44:22.091Z,29.10
2017-06-21T18:46:49.631Z,29.10
2017-06-21T18:49:17.175Z,29.00
2017-06-21T18:51:44.703Z,28.90
2017-06-21T18:54:12.259Z,28.80
2017-06-21T18:56:39.789Z,28.60
2017-06-21T18:59:07.338Z,28.40
2017-06-21T19:01:36.478Z,28.40
2017-06-21T19:04:04.945Z,28.20
2017-06-21T19:06:32.551Z,28.00
2017-06-21T19:09:00.083Z,27.80
2017-06-21T19:11:27.634Z,27.60
2017-06-21T19:13:55.170Z,27.40
2017-06-21T19:16:22.715Z,27.20
2017-06-21T19:18:50.310Z,26.90
2017-06-21T19:21:19.641Z,26.90
2017-06-21T19:23:47.314Z,26.80
2017-06-21T19:26:14.866Z,26.60
2017-06-21T19:28:42.399Z,26.30
2017-06-21T19:31:10.894Z,26.20
2017-06-21T19:33:38.527Z,26.00
2017-06-21T19:36:06.827Z,25.70
2017-06-21T19:38:34.378Z,25.70
2017-06-21T19:41:01.911Z,25.60
2017-06-21T19:43:29.475Z,25.50
2017-06-21T19:45:57.771Z,25.50
2017-06-21T19:48:25.330Z,25.50
2017-06-21T19:50:52.899Z,25.50
2017-06-21T19:53:20.452Z,25.30
2017-06-21T19:55:47.979Z,25.10
2017-06-21T19:58:15.522Z,24.90
2017-06-21T20:00:43.047Z,24.80
2017-06-21T20:03:10.599Z,24.70
2017-06-21T20:05:38.131Z,24.60
2017-06-21T20:08:06.463Z,24.40
2017-06-21T20:10:33.990Z,24.40
2017-06-21T20:13:01.527Z,24.30
2017-06-21T20:15:30.090Z,24.30
2017-06-21T20:17:57.611Z,24.20
2017-06-21T20:20:25.167Z,24.20
2017-06-21T20:22:52.696Z,24.20
2017-06-21T20:25:20.291Z,24.10
2017-06-21T20:27:47.823Z,24.00
2017-06-21T20:30:16.140Z,23.90
2017-06-21T20:32:43.795Z,23.90
2017-06-21T20:35:11.479Z,23.80
2017-06-21T20:37:39.030Z,23.80
2017-06-21T20:40:06.578Z,23.70
2017-06-21T20:42:34.146Z,23.70
2017-06-21T20:45:01.847Z,23.60
2017-06-21T20:47:30.158Z,23.50
2017-06-21T20:49:57.719Z,23.40
2017-06-21T20:52:25.270Z,23.40
2017-06-21T20:54:52.972Z,23.40
2017-06-21T20:57:20.540Z,23.30
2017-06-21T20:59:48.087Z,23.30
2017-06-21T21:02:15.642Z,23.20
2017-06-21T21:04:43.317Z,23.30
2017-06-21T21:07:10.989Z,23.30
2017-06-21T21:09:38.540Z,23.30
2017-06-21T21:12:06.104Z,23.20
2017-06-21T21:14:33.647Z,23.10
2017-06-21T21:17:01.792Z,23.00
2017-06-21T21:19:29.792Z,22.90
2017-06-21T21:21:57.379Z,22.80
2017-06-21T21:24:24.943Z,22.70
2017-06-21T21:26:52.519Z,22.80
2017-06-21T21:29:20.071Z,22.80
2017-06-21T21:31:47.903Z,22.80
2017-06-21T21:34:15.443Z,22.70
2017-06-21T21:36:42.995Z,22.60
2017-06-21T21:39:10.542Z,22.60
2017-06-21T21:41:38.102Z,22.60
2017-06-21T21:44:05.825Z,22.60
2017-06-21T21:46:34.338Z,22.60
2017-06-21T21:49:01.903Z,22.60
2017-06-21T21:51:29.483Z,22.60
2017-06-21T21:53:57.062Z,22.60
2017-06-21T21:56:24.846Z,22.70
2017-06-21T21:58:53.271Z,23.00
2017-06-21T22:01:20.822Z,23.00
2017-06-21T22:03:49.146Z,22.90
2017-06-21T22:06:16.686Z,22.90
2017-06-21T22:08:44.390Z,22.90
2017-06-21T22:11:11.940Z,23.00
2017-06-21T22:13:39.500Z,23.10
2017-06-21T22:16:07.031Z,23.10
2017-06-21T22:18:34.596Z,23.00
2017-06-21T22:21:02.130Z,22.80
2017-06-21T22:23:29.688Z,22.70
2017-06-21T22:25:57.232Z,22.50
2017-06-21T22:28:25.555Z,22.40
2017-06-21T22:51:11.074Z,22.00
2017-06-21T22:53:38.741Z,21.90
2017-06-21T22:56:06.286Z,21.80
2017-06-21T22:58:33.843Z,21.70
2017-06-21T23:01:01.482Z,21.70
2017-06-21T23:03:29.971Z,21.80
2017-06-21T23:05:57.531Z,21.70
2017-06-21T23:08:25.067Z,21.70
2017-06-21T23:10:53.396Z,21.60
2017-06-21T23:13:21.132Z,21.60
2017-06-21T23:15:48.784Z,21.60
2017-06-21T23:18:16.334Z,21.70
2017-06-21T23:20:44.656Z,21.60
2017-06-21T23:23:12.193Z,21.60
2017-06-21T23:25:39.759Z,21.70
2017-06-21T23:28:07.301Z,21.80
2017-06-21T23:30:35.632Z,21.70
2017-06-21T23:33:03.173Z,21.70
2017-06-21T23:35:30.729Z,21.60
2017-06-21T23:37:58.259Z,21.50
2017-06-21T23:40:25.831Z,21.40
2017-06-21T23:42:53.363Z,21.30
2017-06-21T23:45:21.731Z,21.10
2017-06-21T23:47:49.267Z,21.10
2017-06-21T23:50:16.830Z,21.00
2017-06-21T23:52:44.369Z,20.90
2017-06-21T23:55:11.935Z,20.90
2017-06-21T23:57:39.471Z,20.80
